KLSF

Lawson AAF (Fort Benning) Airport

Fort Benning(Columbus), Georgia, USA
METAR KLSF 231356Z AUTO 00000KT 10SM OVC003 16/16 A3038 RMK AO2 VIS 1/8 RWY33 SLP292 T01580158
Observed Flight Rules
Feb-23 @ 13:56 UTC (31 minutes ago) Instrument Flight Rules
Wind Visibility Clouds
Calm 10 miles
  • Overcast at 300' AGL
Temperatures Readings
Current 16°C / 61°F
Dewpoint 16°C / 61°F
Humidity 100%
Altimeter 30.38" Hg
Pressure 1029.2 hPa
Elevation 71
METAR KLSF 231356Z AUTO 00000KT 10SM OVC003 16/16 A3038 RMK AO2 VIS 1/8 RWY33 SLP292 T01580158
Observed Flight Rules
Feb-23 @ 13:56 UTC
(31 minutes ago)
LIFR
Wind Visibility
Calm 10 miles
Clouds
  • Overcast at 300' AGL
Temperature Dewpoint
16°C / 61°F 16°C / 61°F
Humidity Altimeter Pressure
100% 30.38" Hg 1029.2 hPa